sensor_id;sensor_type;location;lat;lon;timestamp;P1;P2;P0
64697;PMS5003;51124;53.394;-6.294;2023-10-19T00:01:21;2;2;
64697;PMS5003;51124;53.394;-6.294;2023-10-19T00:03:54;9;3;
64697;PMS5003;51124;53.394;-6.294;2023-10-19T00:06:30;4;3;
64697;PMS5003;51124;53.394;-6.294;2023-10-19T00:08:57;4;1;
64697;PMS5003;51124;53.394;-6.294;2023-10-19T00:11:24;2;2;
64697;PMS5003;51124;53.394;-6.294;2023-10-19T00:13:52;4;4;
64697;PMS5003;51124;53.394;-6.294;2023-10-19T00:16:20;1;1;
64697;PMS5003;51124;53.394;-6.294;2023-10-19T00:18:47;3;3;
64697;PMS5003;51124;53.394;-6.294;2023-10-19T00:21:15;5;4;
64697;PMS5003;51124;53.394;-6.294;2023-10-19T00:23:44;4;4;
64697;PMS5003;51124;53.394;-6.294;2023-10-19T00:26:11;2;2;
64697;PMS5003;51124;53.394;-6.294;2023-10-19T00:28:38;5;4;
64697;PMS5003;51124;53.394;-6.294;2023-10-19T00:31:06;2;2;
64697;PMS5003;51124;53.394;-6.294;2023-10-19T00:33:33;4;3;
64697;PMS5003;51124;53.394;-6.294;2023-10-19T00:36:00;3;3;
64697;PMS5003;51124;53.394;-6.294;2023-10-19T00:38:28;3;3;
64697;PMS5003;51124;53.394;-6.294;2023-10-19T00:40:55;7;5;
64697;PMS5003;51124;53.394;-6.294;2023-10-19T00:43:26;6;3;
64697;PMS5003;51124;53.394;-6.294;2023-10-19T00:45:54;4;4;
64697;PMS5003;51124;53.394;-6.294;2023-10-19T00:48:21;2;2;
64697;PMS5003;51124;53.394;-6.294;2023-10-19T00:50:49;2;2;
64697;PMS5003;51124;53.394;-6.294;2023-10-19T00:53:17;4;3;
64697;PMS5003;51124;53.394;-6.294;2023-10-19T00:55:44;3;3;
64697;PMS5003;51124;53.394;-6.294;2023-10-19T00:58:12;3;3;
64697;PMS5003;51124;53.394;-6.294;2023-10-19T01:00:39;1;1;
64697;PMS5003;51124;53.394;-6.294;2023-10-19T01:03:06;2;2;
64697;PMS5003;51124;53.394;-6.294;2023-10-19T01:05:35;2;1;
64697;PMS5003;51124;53.394;-6.294;2023-10-19T01:08:02;3;3;
64697;PMS5003;51124;53.394;-6.294;2023-10-19T01:10:30;3;2;
64697;PMS5003;51124;53.394;-6.294;2023-10-19T01:12:57;3;2;
64697;PMS5003;51124;53.394;-6.294;2023-10-19T01:15:25;3;3;
64697;PMS5003;51124;53.394;-6.294;2023-10-19T01:17:52;4;3;
64697;PMS5003;51124;53.394;-6.294;2023-10-19T01:20:21;5;3;
64697;PMS5003;51124;53.394;-6.294;2023-10-19T01:22:51;2;2;
64697;PMS5003;51124;53.394;-6.294;2023-10-19T01:25:19;1;1;
64697;PMS5003;51124;53.394;-6.294;2023-10-19T01:27:46;3;2;
64697;PMS5003;51124;53.394;-6.294;2023-10-19T01:30:13;3;3;
64697;PMS5003;51124;53.394;-6.294;2023-10-19T01:32:40;3;3;
64697;PMS5003;51124;53.394;-6.294;2023-10-19T01:35:07;3;3;
64697;PMS5003;51124;53.394;-6.294;2023-10-19T01:37:35;2;2;
64697;PMS5003;51124;53.394;-6.294;2023-10-19T01:40:02;4;3;
64697;PMS5003;51124;53.394;-6.294;2023-10-19T01:42:30;2;2;
64697;PMS5003;51124;53.394;-6.294;2023-10-19T01:44:57;1;1;
64697;PMS5003;51124;53.394;-6.294;2023-10-19T01:47:24;4;3;
64697;PMS5003;51124;53.394;-6.294;2023-10-19T01:49:51;5;3;
64697;PMS5003;51124;53.394;-6.294;2023-10-19T01:52:19;3;3;
64697;PMS5003;51124;53.394;-6.294;2023-10-19T01:54:46;2;2;
64697;PMS5003;51124;53.394;-6.294;2023-10-19T01:57:13;3;2;
64697;PMS5003;51124;53.394;-6.294;2023-10-19T01:59:40;1;1;
64697;PMS5003;51124;53.394;-6.294;2023-10-19T02:02:08;2;2;
64697;PMS5003;51124;53.394;-6.294;2023-10-19T02:04:35;2;2;
64697;PMS5003;51124;53.394;-6.294;2023-10-19T02:07:02;3;3;
64697;PMS5003;51124;53.394;-6.294;2023-10-19T02:09:29;2;2;
64697;PMS5003;51124;53.394;-6.294;2023-10-19T02:11:57;3;3;
64697;PMS5003;51124;53.394;-6.294;2023-10-19T02:14:25;2;2;
64697;PMS5003;51124;53.394;-6.294;2023-10-19T02:16:54;3;3;
64697;PMS5003;51124;53.394;-6.294;2023-10-19T02:19:22;4;3;
64697;PMS5003;51124;53.394;-6.294;2023-10-19T02:21:51;2;2;
64697;PMS5003;51124;53.394;-6.294;2023-10-19T02:24:20;3;3;
64697;PMS5003;51124;53.394;-6.294;2023-10-19T02:26:48;3;3;
64697;PMS5003;51124;53.394;-6.294;2023-10-19T02:29:17;3;2;
64697;PMS5003;51124;53.394;-6.294;2023-10-19T02:31:44;0;0;
64697;PMS5003;51124;53.394;-6.294;2023-10-19T02:34:12;3;2;
64697;PMS5003;51124;53.394;-6.294;2023-10-19T02:36:40;2;2;
64697;PMS5003;51124;53.394;-6.294;2023-10-19T02:39:09;2;2;
64697;PMS5003;51124;53.394;-6.294;2023-10-19T02:41:38;1;1;
64697;PMS5003;51124;53.394;-6.294;2023-10-19T02:44:08;3;2;
64697;PMS5003;51124;53.394;-6.294;2023-10-19T02:46:36;1;1;
64697;PMS5003;51124;53.394;-6.294;2023-10-19T02:49:04;3;2;
64697;PMS5003;51124;53.394;-6.294;2023-10-19T02:51:33;2;2;
64697;PMS5003;51124;53.394;-6.294;2023-10-19T02:54:00;1;1;
64697;PMS5003;51124;53.394;-6.294;2023-10-19T02:56:28;1;1;
64697;PMS5003;51124;53.394;-6.294;2023-10-19T02:58:56;2;2;
64697;PMS5003;51124;53.394;-6.294;2023-10-19T03:01:23;2;2;
64697;PMS5003;51124;53.394;-6.294;2023-10-19T03:03:51;2;2;
64697;PMS5003;51124;53.394;-6.294;2023-10-19T03:06:20;1;1;
64697;PMS5003;51124;53.394;-6.294;2023-10-19T03:08:48;1;1;
64697;PMS5003;51124;53.394;-6.294;2023-10-19T03:11:15;2;2;
64697;PMS5003;51124;53.394;-6.294;2023-10-19T03:13:43;2;2;
64697;PMS5003;51124;53.394;-6.294;2023-10-19T03:16:10;2;2;
64697;PMS5003;51124;53.394;-6.294;2023-10-19T03:18:37;1;1;
64697;PMS5003;51124;53.394;-6.294;2023-10-19T03:21:04;0;0;
64697;PMS5003;51124;53.394;-6.294;2023-10-19T03:23:32;2;2;
64697;PMS5003;51124;53.394;-6.294;2023-10-19T03:25:59;1;1;
64697;PMS5003;51124;53.394;-6.294;2023-10-19T03:28:27;3;1;
64697;PMS5003;51124;53.394;-6.294;2023-10-19T03:30:54;1;1;
64697;PMS5003;51124;53.394;-6.294;2023-10-19T03:33:21;3;0;
64697;PMS5003;51124;53.394;-6.294;2023-10-19T03:35:48;2;1;
64697;PMS5003;51124;53.394;-6.294;2023-10-19T03:38:16;3;2;
64697;PMS5003;51124;53.394;-6.294;2023-10-19T03:40:43;2;2;
64697;PMS5003;51124;53.394;-6.294;2023-10-19T03:43:10;3;2;
64697;PMS5003;51124;53.394;-6.294;2023-10-19T03:45:37;2;1;
64697;PMS5003;51124;53.394;-6.294;2023-10-19T03:48:05;1;1;
64697;PMS5003;51124;53.394;-6.294;2023-10-19T03:50:32;2;2;
64697;PMS5003;51124;53.394;-6.294;2023-10-19T03:52:59;1;0;
64697;PMS5003;51124;53.394;-6.294;2023-10-19T03:55:27;2;1;
64697;PMS5003;51124;53.394;-6.294;2023-10-19T03:57:54;1;1;
64697;PMS5003;51124;53.394;-6.294;2023-10-19T04:00:21;1;1;
64697;PMS5003;51124;53.394;-6.294;2023-10-19T04:02:48;3;2;
64697;PMS5003;51124;53.394;-6.294;2023-10-19T04:05:15;2;1;
64697;PMS5003;51124;53.394;-6.294;2023-10-19T04:07:43;1;1;
64697;PMS5003;51124;53.394;-6.294;2023-10-19T04:10:10;1;0;
64697;PMS5003;51124;53.394;-6.294;2023-10-19T04:12:38;1;1;
64697;PMS5003;51124;53.394;-6.294;2023-10-19T04:15:06;2;2;
64697;PMS5003;51124;53.394;-6.294;2023-10-19T04:17:34;2;2;
64697;PMS5003;51124;53.394;-6.294;2023-10-19T04:20:01;1;1;
64697;PMS5003;51124;53.394;-6.294;2023-10-19T04:22:29;2;2;
64697;PMS5003;51124;53.394;-6.294;2023-10-19T04:24:57;2;2;
64697;PMS5003;51124;53.394;-6.294;2023-10-19T04:27:24;0;0;
64697;PMS5003;51124;53.394;-6.294;2023-10-19T04:29:51;2;2;
64697;PMS5003;51124;53.394;-6.294;2023-10-19T04:32:19;2;2;
64697;PMS5003;51124;53.394;-6.294;2023-10-19T04:34:46;1;1;
64697;PMS5003;51124;53.394;-6.294;2023-10-19T04:37:13;1;1;
64697;PMS5003;51124;53.394;-6.294;2023-10-19T04:39:40;1;1;
64697;PMS5003;51124;53.394;-6.294;2023-10-19T04:42:07;1;1;
64697;PMS5003;51124;53.394;-6.294;2023-10-19T04:44:35;0;0;
64697;PMS5003;51124;53.394;-6.294;2023-10-19T04:47:02;0;0;
64697;PMS5003;51124;53.394;-6.294;2023-10-19T04:49:29;0;0;
64697;PMS5003;51124;53.394;-6.294;2023-10-19T04:51:56;1;1;
64697;PMS5003;51124;53.394;-6.294;2023-10-19T04:54:24;1;0;
64697;PMS5003;51124;53.394;-6.294;2023-10-19T04:56:51;1;1;
64697;PMS5003;51124;53.394;-6.294;2023-10-19T04:59:18;0;0;
64697;PMS5003;51124;53.394;-6.294;2023-10-19T05:01:45;1;0;
64697;PMS5003;51124;53.394;-6.294;2023-10-19T05:04:12;2;1;
64697;PMS5003;51124;53.394;-6.294;2023-10-19T05:06:40;1;1;
64697;PMS5003;51124;53.394;-6.294;2023-10-19T05:09:07;0;0;
64697;PMS5003;51124;53.394;-6.294;2023-10-19T05:11:34;1;1;
64697;PMS5003;51124;53.394;-6.294;2023-10-19T05:14:01;1;1;
64697;PMS5003;51124;53.394;-6.294;2023-10-19T05:16:29;0;0;
64697;PMS5003;51124;53.394;-6.294;2023-10-19T05:18:56;0;0;
64697;PMS5003;51124;53.394;-6.294;2023-10-19T05:21:23;0;0;
64697;PMS5003;51124;53.394;-6.294;2023-10-19T05:23:51;0;0;
64697;PMS5003;51124;53.394;-6.294;2023-10-19T05:26:18;0;0;
64697;PMS5003;51124;53.394;-6.294;2023-10-19T05:28:45;0;0;
64697;PMS5003;51124;53.394;-6.294;2023-10-19T05:31:13;0;0;
64697;PMS5003;51124;53.394;-6.294;2023-10-19T05:33:41;1;1;
64697;PMS5003;51124;53.394;-6.294;2023-10-19T05:36:08;1;1;
64697;PMS5003;51124;53.394;-6.294;2023-10-19T05:38:36;2;2;
64697;PMS5003;51124;53.394;-6.294;2023-10-19T05:41:03;3;0;
64697;PMS5003;51124;53.394;-6.294;2023-10-19T05:43:31;1;0;
64697;PMS5003;51124;53.394;-6.294;2023-10-19T05:45:59;1;1;
64697;PMS5003;51124;53.394;-6.294;2023-10-19T05:48:26;1;1;
64697;PMS5003;51124;53.394;-6.294;2023-10-19T05:50:53;1;1;
64697;PMS5003;51124;53.394;-6.294;2023-10-19T05:53:21;0;0;
64697;PMS5003;51124;53.394;-6.294;2023-10-19T05:55:48;0;0;
64697;PMS5003;51124;53.394;-6.294;2023-10-19T05:58:15;1;1;
64697;PMS5003;51124;53.394;-6.294;2023-10-19T06:00:43;1;1;
64697;PMS5003;51124;53.394;-6.294;2023-10-19T06:03:10;0;0;
64697;PMS5003;51124;53.394;-6.294;2023-10-19T06:05:35;0;0;
64697;PMS5003;51124;53.394;-6.294;2023-10-19T06:07:59;0;0;
64697;PMS5003;51124;53.394;-6.294;2023-10-19T06:10:33;2;0;
64697;PMS5003;51124;53.394;-6.294;2023-10-19T06:12:58;1;1;
64697;PMS5003;51124;53.394;-6.294;2023-10-19T06:15:32;0;0;
64697;PMS5003;51124;53.394;-6.294;2023-10-19T06:18:05;0;0;
64697;PMS5003;51124;53.394;-6.294;2023-10-19T06:20:42;1;1;
64697;PMS5003;51124;53.394;-6.294;2023-10-19T06:23:06;0;0;
64697;PMS5003;51124;53.394;-6.294;2023-10-19T06:25:39;0;0;
64697;PMS5003;51124;53.394;-6.294;2023-10-19T06:28:12;1;1;
64697;PMS5003;51124;53.394;-6.294;2023-10-19T06:30:46;0;0;
64697;PMS5003;51124;53.394;-6.294;2023-10-19T06:33:19;0;0;
64697;PMS5003;51124;53.394;-6.294;2023-10-19T06:35:52;0;0;
64697;PMS5003;51124;53.394;-6.294;2023-10-19T06:38:26;1;1;
64697;PMS5003;51124;53.394;-6.294;2023-10-19T06:40:59;0;0;
64697;PMS5003;51124;53.394;-6.294;2023-10-19T06:43:33;2;2;
64697;PMS5003;51124;53.394;-6.294;2023-10-19T06:46:06;1;1;
64697;PMS5003;51124;53.394;-6.294;2023-10-19T06:48:40;0;0;
64697;PMS5003;51124;53.394;-6.294;2023-10-19T06:51:14;0;0;
64697;PMS5003;51124;53.394;-6.294;2023-10-19T06:53:47;0;0;
64697;PMS5003;51124;53.394;-6.294;2023-10-19T06:56:20;0;0;
64697;PMS5003;51124;53.394;-6.294;2023-10-19T06:58:54;0;0;
64697;PMS5003;51124;53.394;-6.294;2023-10-19T07:01:27;0;0;
64697;PMS5003;51124;53.394;-6.294;2023-10-19T07:04:01;1;1;
64697;PMS5003;51124;53.394;-6.294;2023-10-19T07:06:35;0;0;
64697;PMS5003;51124;53.394;-6.294;2023-10-19T07:09:08;0;0;
64697;PMS5003;51124;53.394;-6.294;2023-10-19T07:11:41;0;0;
64697;PMS5003;51124;53.394;-6.294;2023-10-19T07:14:15;0;0;
64697;PMS5003;51124;53.394;-6.294;2023-10-19T07:16:49;0;0;
64697;PMS5003;51124;53.394;-6.294;2023-10-19T07:19:23;0;0;
64697;PMS5003;51124;53.394;-6.294;2023-10-19T07:21:56;0;0;
64697;PMS5003;51124;53.394;-6.294;2023-10-19T07:24:29;0;0;
64697;PMS5003;51124;53.394;-6.294;2023-10-19T07:27:03;0;0;
64697;PMS5003;51124;53.394;-6.294;2023-10-19T07:29:36;1;1;
64697;PMS5003;51124;53.394;-6.294;2023-10-19T07:32:09;1;1;
64697;PMS5003;51124;53.394;-6.294;2023-10-19T07:34:43;0;0;
64697;PMS5003;51124;53.394;-6.294;2023-10-19T07:37:16;1;1;
64697;PMS5003;51124;53.394;-6.294;2023-10-19T07:39:50;2;0;
64697;PMS5003;51124;53.394;-6.294;2023-10-19T07:42:23;2;0;
64697;PMS5003;51124;53.394;-6.294;2023-10-19T07:44:56;0;0;
64697;PMS5003;51124;53.394;-6.294;2023-10-19T07:47:30;0;0;
64697;PMS5003;51124;53.394;-6.294;2023-10-19T07:50:04;0;0;
64697;PMS5003;51124;53.394;-6.294;2023-10-19T07:52:38;0;0;
64697;PMS5003;51124;53.394;-6.294;2023-10-19T07:55:11;0;0;
64697;PMS5003;51124;53.394;-6.294;2023-10-19T07:57:45;0;0;
64697;PMS5003;51124;53.394;-6.294;2023-10-19T08:00:18;0;0;
64697;PMS5003;51124;53.394;-6.294;2023-10-19T08:02:52;0;0;
64697;PMS5003;51124;53.394;-6.294;2023-10-19T08:05:26;0;0;
64697;PMS5003;51124;53.394;-6.294;2023-10-19T08:07:59;0;0;
64697;PMS5003;51124;53.394;-6.294;2023-10-19T08:10:33;1;1;
64697;PMS5003;51124;53.394;-6.294;2023-10-19T08:13:06;1;1;
64697;PMS5003;51124;53.394;-6.294;2023-10-19T08:15:40;0;0;
64697;PMS5003;51124;53.394;-6.294;2023-10-19T08:18:13;1;1;
64697;PMS5003;51124;53.394;-6.294;2023-10-19T08:20:47;0;0;
64697;PMS5003;51124;53.394;-6.294;2023-10-19T08:23:21;0;0;
64697;PMS5003;51124;53.394;-6.294;2023-10-19T08:25:54;0;0;
64697;PMS5003;51124;53.394;-6.294;2023-10-19T08:28:28;1;1;
64697;PMS5003;51124;53.394;-6.294;2023-10-19T08:31:02;1;1;
64697;PMS5003;51124;53.394;-6.294;2023-10-19T08:33:35;1;1;
64697;PMS5003;51124;53.394;-6.294;2023-10-19T08:36:17;1;1;
64697;PMS5003;51124;53.394;-6.294;2023-10-19T08:38:41;1;1;
64697;PMS5003;51124;53.394;-6.294;2023-10-19T08:41:14;0;0;
64697;PMS5003;51124;53.394;-6.294;2023-10-19T08:43:39;0;0;
64697;PMS5003;51124;53.394;-6.294;2023-10-19T08:46:13;0;0;
64697;PMS5003;51124;53.394;-6.294;2023-10-19T08:48:46;0;0;
64697;PMS5003;51124;53.394;-6.294;2023-10-19T08:51:20;1;0;
64697;PMS5003;51124;53.394;-6.294;2023-10-19T08:53:53;0;0;
64697;PMS5003;51124;53.394;-6.294;2023-10-19T08:56:28;0;0;
64697;PMS5003;51124;53.394;-6.294;2023-10-19T08:58:54;0;0;
64697;PMS5003;51124;53.394;-6.294;2023-10-19T09:01:19;0;0;
64697;PMS5003;51124;53.394;-6.294;2023-10-19T09:03:52;0;0;
64697;PMS5003;51124;53.394;-6.294;2023-10-19T09:06:26;0;0;
64697;PMS5003;51124;53.394;-6.294;2023-10-19T09:09:00;2;0;
64697;PMS5003;51124;53.394;-6.294;2023-10-19T09:11:34;1;1;
64697;PMS5003;51124;53.394;-6.294;2023-10-19T09:14:07;0;0;
64697;PMS5003;51124;53.394;-6.294;2023-10-19T09:16:53;1;0;
64697;PMS5003;51124;53.394;-6.294;2023-10-19T09:19:06;1;1;
64697;PMS5003;51124;53.394;-6.294;2023-10-19T09:21:40;0;0;
64697;PMS5003;51124;53.394;-6.294;2023-10-19T09:24:15;0;0;
64697;PMS5003;51124;53.394;-6.294;2023-10-19T09:26:49;1;1;
64697;PMS5003;51124;53.394;-6.294;2023-10-19T09:29:23;0;0;
64697;PMS5003;51124;53.394;-6.294;2023-10-19T09:31:58;2;1;
64697;PMS5003;51124;53.394;-6.294;2023-10-19T09:34:21;0;0;
64697;PMS5003;51124;53.394;-6.294;2023-10-19T09:36:57;0;0;
64697;PMS5003;51124;53.394;-6.294;2023-10-19T09:39:30;0;0;
64697;PMS5003;51124;53.394;-6.294;2023-10-19T09:42:05;1;0;
64697;PMS5003;51124;53.394;-6.294;2023-10-19T09:44:29;1;0;
64697;PMS5003;51124;53.394;-6.294;2023-10-19T09:46:57;1;1;
64697;PMS5003;51124;53.394;-6.294;2023-10-19T09:49:24;0;0;
64697;PMS5003;51124;53.394;-6.294;2023-10-19T09:51:57;1;1;
64697;PMS5003;51124;53.394;-6.294;2023-10-19T09:54:34;0;0;
64697;PMS5003;51124;53.394;-6.294;2023-10-19T09:57:09;1;0;
64697;PMS5003;51124;53.394;-6.294;2023-10-19T09:59:37;0;0;
64697;PMS5003;51124;53.394;-6.294;2023-10-19T10:02:04;0;0;
64697;PMS5003;51124;53.394;-6.294;2023-10-19T10:04:30;1;1;
64697;PMS5003;51124;53.394;-6.294;2023-10-19T10:07:04;0;0;
64697;PMS5003;51124;53.394;-6.294;2023-10-19T10:09:40;1;1;
64697;PMS5003;51124;53.394;-6.294;2023-10-19T10:12:22;2;2;
64697;PMS5003;51124;53.394;-6.294;2023-10-19T10:14:38;5;4;
64697;PMS5003;51124;53.394;-6.294;2023-10-19T10:17:04;4;4;
64697;PMS5003;51124;53.394;-6.294;2023-10-19T10:19:38;3;3;
64697;PMS5003;51124;53.394;-6.294;2023-10-19T10:22:11;5;5;
64697;PMS5003;51124;53.394;-6.294;2023-10-19T10:24:45;5;5;
64697;PMS5003;51124;53.394;-6.294;2023-10-19T10:27:18;9;8;
64697;PMS5003;51124;53.394;-6.294;2023-10-19T10:29:53;6;5;
64697;PMS5003;51124;53.394;-6.294;2023-10-19T10:32:37;8;7;
64697;PMS5003;51124;53.394;-6.294;2023-10-19T10:34:45;10;9;
64697;PMS5003;51124;53.394;-6.294;2023-10-19T10:37:18;11;9;
64697;PMS5003;51124;53.394;-6.294;2023-10-19T10:39:52;17;14;
64697;PMS5003;51124;53.394;-6.294;2023-10-19T10:42:22;14;13;
64697;PMS5003;51124;53.394;-6.294;2023-10-19T10:44:55;15;13;
64697;PMS5003;51124;53.394;-6.294;2023-10-19T10:47:28;23;22;
64697;PMS5003;51124;53.394;-6.294;2023-10-19T10:50:02;19;16;
64697;PMS5003;51124;53.394;-6.294;2023-10-19T10:52:36;18;18;
64697;PMS5003;51124;53.394;-6.294;2023-10-19T10:55:11;20;19;
64697;PMS5003;51124;53.394;-6.294;2023-10-19T10:57:46;17;15;
64697;PMS5003;51124;53.394;-6.294;2023-10-19T11:00:13;23;22;
64697;PMS5003;51124;53.394;-6.294;2023-10-19T11:02:39;23;23;
64697;PMS5003;51124;53.394;-6.294;2023-10-19T11:05:05;23;22;
64697;PMS5003;51124;53.394;-6.294;2023-10-19T11:07:30;35;29;
64697;PMS5003;51124;53.394;-6.294;2023-10-19T11:10:05;31;28;
64697;PMS5003;51124;53.394;-6.294;2023-10-19T11:12:29;31;30;
64697;PMS5003;51124;53.394;-6.294;2023-10-19T11:15:03;29;25;
64697;PMS5003;51124;53.394;-6.294;2023-10-19T11:17:44;27;27;
64697;PMS5003;51124;53.394;-6.294;2023-10-19T11:20:08;26;24;
64697;PMS5003;51124;53.394;-6.294;2023-10-19T11:22:47;27;25;
64697;PMS5003;51124;53.394;-6.294;2023-10-19T11:25:21;26;25;
64697;PMS5003;51124;53.394;-6.294;2023-10-19T11:27:46;38;32;
64697;PMS5003;51124;53.394;-6.294;2023-10-19T11:30:24;35;31;
64697;PMS5003;51124;53.394;-6.294;2023-10-19T11:32:48;41;35;
64697;PMS5003;51124;53.394;-6.294;2023-10-19T11:35:22;27;26;
64697;PMS5003;51124;53.394;-6.294;2023-10-19T11:37:57;43;41;
64697;PMS5003;51124;53.394;-6.294;2023-10-19T11:40:22;40;38;
64697;PMS5003;51124;53.394;-6.294;2023-10-19T11:42:56;40;37;
64697;PMS5003;51124;53.394;-6.294;2023-10-19T11:45:30;35;33;
64697;PMS5003;51124;53.394;-6.294;2023-10-19T11:48:04;36;35;
64697;PMS5003;51124;53.394;-6.294;2023-10-19T11:50:38;38;34;
64697;PMS5003;51124;53.394;-6.294;2023-10-19T11:53:11;39;35;
64697;PMS5003;51124;53.394;-6.294;2023-10-19T11:55:45;37;37;
64697;PMS5003;51124;53.394;-6.294;2023-10-19T11:58:19;33;30;
64697;PMS5003;51124;53.394;-6.294;2023-10-19T12:00:55;37;35;
64697;PMS5003;51124;53.394;-6.294;2023-10-19T12:03:23;35;31;
64697;PMS5003;51124;53.394;-6.294;2023-10-19T12:05:50;36;35;
64697;PMS5003;51124;53.394;-6.294;2023-10-19T12:08:15;33;30;
64697;PMS5003;51124;53.394;-6.294;2023-10-19T12:10:39;33;28;
64697;PMS5003;51124;53.394;-6.294;2023-10-19T12:13:13;38;34;
64697;PMS5003;51124;53.394;-6.294;2023-10-19T12:15:46;35;32;
64697;PMS5003;51124;53.394;-6.294;2023-10-19T12:18:20;31;30;
64697;PMS5003;51124;53.394;-6.294;2023-10-19T12:20:53;30;28;
64697;PMS5003;51124;53.394;-6.294;2023-10-19T12:23:27;31;30;
64697;PMS5003;51124;53.394;-6.294;2023-10-19T12:26:00;32;29;
64697;PMS5003;51124;53.394;-6.294;2023-10-19T12:28:33;33;31;
64697;PMS5003;51124;53.394;-6.294;2023-10-19T12:31:07;34;29;
64697;PMS5003;51124;53.394;-6.294;2023-10-19T12:33:40;37;34;
64697;PMS5003;51124;53.394;-6.294;2023-10-19T12:36:14;36;33;
64697;PMS5003;51124;53.394;-6.294;2023-10-19T12:38:47;34;33;
64697;PMS5003;51124;53.394;-6.294;2023-10-19T12:41:21;36;34;
64697;PMS5003;51124;53.394;-6.294;2023-10-19T12:43:54;31;31;
64697;PMS5003;51124;53.394;-6.294;2023-10-19T12:46:28;39;34;
64697;PMS5003;51124;53.394;-6.294;2023-10-19T12:49:01;31;29;
64697;PMS5003;51124;53.394;-6.294;2023-10-19T12:51:26;34;33;
64697;PMS5003;51124;53.394;-6.294;2023-10-19T12:54:00;40;38;
64697;PMS5003;51124;53.394;-6.294;2023-10-19T12:56:33;36;34;
64697;PMS5003;51124;53.394;-6.294;2023-10-19T12:59:07;39;35;
64697;PMS5003;51124;53.394;-6.294;2023-10-19T13:01:41;40;35;
64697;PMS5003;51124;53.394;-6.294;2023-10-19T13:04:07;39;37;
64697;PMS5003;51124;53.394;-6.294;2023-10-19T13:06:32;31;31;
64697;PMS5003;51124;53.394;-6.294;2023-10-19T13:08:56;34;34;
64697;PMS5003;51124;53.394;-6.294;2023-10-19T13:11:30;36;32;
64697;PMS5003;51124;53.394;-6.294;2023-10-19T13:14:03;34;30;
64697;PMS5003;51124;53.394;-6.294;2023-10-19T13:16:36;30;28;
64697;PMS5003;51124;53.394;-6.294;2023-10-19T13:19:10;28;28;
64697;PMS5003;51124;53.394;-6.294;2023-10-19T13:21:43;25;25;
64697;PMS5003;51124;53.394;-6.294;2023-10-19T13:24:18;42;38;
64697;PMS5003;51124;53.394;-6.294;2023-10-19T13:26:51;45;38;
64697;PMS5003;51124;53.394;-6.294;2023-10-19T13:29:25;28;27;
64697;PMS5003;51124;53.394;-6.294;2023-10-19T13:31:58;31;30;
64697;PMS5003;51124;53.394;-6.294;2023-10-19T13:34:32;58;56;
64697;PMS5003;51124;53.394;-6.294;2023-10-19T13:37:05;59;55;
64697;PMS5003;51124;53.394;-6.294;2023-10-19T13:39:38;61;58;
64697;PMS5003;51124;53.394;-6.294;2023-10-19T13:42:12;57;56;
64697;PMS5003;51124;53.394;-6.294;2023-10-19T13:44:46;38;38;
64697;PMS5003;51124;53.394;-6.294;2023-10-19T13:47:20;49;45;
64697;PMS5003;51124;53.394;-6.294;2023-10-19T13:49:53;47;45;
64697;PMS5003;51124;53.394;-6.294;2023-10-19T13:52:26;47;46;
64697;PMS5003;51124;53.394;-6.294;2023-10-19T13:55:00;44;43;
64697;PMS5003;51124;53.394;-6.294;2023-10-19T13:57:34;20;20;
64697;PMS5003;51124;53.394;-6.294;2023-10-19T14:00:08;24;20;
64697;PMS5003;51124;53.394;-6.294;2023-10-19T14:02:43;25;22;
64697;PMS5003;51124;53.394;-6.294;2023-10-19T14:05:08;29;23;
64697;PMS5003;51124;53.394;-6.294;2023-10-19T14:07:41;20;18;
64697;PMS5003;51124;53.394;-6.294;2023-10-19T14:10:15;20;20;
64697;PMS5003;51124;53.394;-6.294;2023-10-19T14:12:48;23;21;
64697;PMS5003;51124;53.394;-6.294;2023-10-19T14:15:22;21;21;
64697;PMS5003;51124;53.394;-6.294;2023-10-19T14:17:56;23;20;
64697;PMS5003;51124;53.394;-6.294;2023-10-19T14:20:30;21;19;
64697;PMS5003;51124;53.394;-6.294;2023-10-19T14:23:04;19;16;
64697;PMS5003;51124;53.394;-6.294;2023-10-19T14:25:38;17;16;
64697;PMS5003;51124;53.394;-6.294;2023-10-19T14:28:11;19;16;
64697;PMS5003;51124;53.394;-6.294;2023-10-19T14:30:45;16;16;
64697;PMS5003;51124;53.394;-6.294;2023-10-19T14:33:18;15;15;
64697;PMS5003;51124;53.394;-6.294;2023-10-19T14:35:52;20;19;
64697;PMS5003;51124;53.394;-6.294;2023-10-19T14:38:25;16;15;
64697;PMS5003;51124;53.394;-6.294;2023-10-19T14:41:00;21;15;
64697;PMS5003;51124;53.394;-6.294;2023-10-19T14:43:33;20;16;
64697;PMS5003;51124;53.394;-6.294;2023-10-19T14:46:06;26;24;
64697;PMS5003;51124;53.394;-6.294;2023-10-19T14:48:40;21;19;
64697;PMS5003;51124;53.394;-6.294;2023-10-19T14:51:13;20;16;
64697;PMS5003;51124;53.394;-6.294;2023-10-19T14:53:47;21;20;
64697;PMS5003;51124;53.394;-6.294;2023-10-19T14:56:21;21;19;
64697;PMS5003;51124;53.394;-6.294;2023-10-19T14:58:54;19;14;
64697;PMS5003;51124;53.394;-6.294;2023-10-19T15:01:29;19;17;
64697;PMS5003;51124;53.394;-6.294;2023-10-19T15:03:54;16;16;
64697;PMS5003;51124;53.394;-6.294;2023-10-19T15:06:27;17;16;
64697;PMS5003;51124;53.394;-6.294;2023-10-19T15:09:01;18;18;
64697;PMS5003;51124;53.394;-6.294;2023-10-19T15:11:34;17;17;
64697;PMS5003;51124;53.394;-6.294;2023-10-19T15:14:08;17;15;
64697;PMS5003;51124;53.394;-6.294;2023-10-19T15:16:41;14;13;
64697;PMS5003;51124;53.394;-6.294;2023-10-19T15:19:14;17;16;
64697;PMS5003;51124;53.394;-6.294;2023-10-19T15:21:48;18;18;
64697;PMS5003;51124;53.394;-6.294;2023-10-19T15:24:21;21;20;
64697;PMS5003;51124;53.394;-6.294;2023-10-19T15:26:54;16;15;
64697;PMS5003;51124;53.394;-6.294;2023-10-19T15:29:28;19;19;
64697;PMS5003;51124;53.394;-6.294;2023-10-19T15:32:01;21;21;
64697;PMS5003;51124;53.394;-6.294;2023-10-19T15:34:35;19;19;
64697;PMS5003;51124;53.394;-6.294;2023-10-19T15:37:09;19;18;
64697;PMS5003;51124;53.394;-6.294;2023-10-19T15:39:42;19;18;
64697;PMS5003;51124;53.394;-6.294;2023-10-19T15:42:15;26;21;
64697;PMS5003;51124;53.394;-6.294;2023-10-19T15:44:50;23;21;
64697;PMS5003;51124;53.394;-6.294;2023-10-19T15:47:23;21;18;
64697;PMS5003;51124;53.394;-6.294;2023-10-19T15:49:57;23;21;
64697;PMS5003;51124;53.394;-6.294;2023-10-19T15:52:30;19;19;
64697;PMS5003;51124;53.394;-6.294;2023-10-19T15:55:04;17;17;
64697;PMS5003;51124;53.394;-6.294;2023-10-19T15:57:39;23;22;
64697;PMS5003;51124;53.394;-6.294;2023-10-19T16:00:04;18;17;
64697;PMS5003;51124;53.394;-6.294;2023-10-19T16:02:29;15;15;
64697;PMS5003;51124;53.394;-6.294;2023-10-19T16:05:03;19;18;
64697;PMS5003;51124;53.394;-6.294;2023-10-19T16:07:36;18;17;
64697;PMS5003;51124;53.394;-6.294;2023-10-19T16:10:10;19;18;
64697;PMS5003;51124;53.394;-6.294;2023-10-19T16:12:45;18;17;
64697;PMS5003;51124;53.394;-6.294;2023-10-19T16:15:18;17;15;
64697;PMS5003;51124;53.394;-6.294;2023-10-19T16:17:52;19;18;
64697;PMS5003;51124;53.394;-6.294;2023-10-19T16:20:25;24;22;
64697;PMS5003;51124;53.394;-6.294;2023-10-19T16:22:58;21;19;
64697;PMS5003;51124;53.394;-6.294;2023-10-19T16:25:32;22;18;
64697;PMS5003;51124;53.394;-6.294;2023-10-19T16:28:05;22;20;
64697;PMS5003;51124;53.394;-6.294;2023-10-19T16:30:39;25;22;
64697;PMS5003;51124;53.394;-6.294;2023-10-19T16:33:12;19;16;
64697;PMS5003;51124;53.394;-6.294;2023-10-19T16:35:45;21;18;
64697;PMS5003;51124;53.394;-6.294;2023-10-19T16:38:19;20;18;
64697;PMS5003;51124;53.394;-6.294;2023-10-19T16:40:57;18;17;
64697;PMS5003;51124;53.394;-6.294;2023-10-19T16:43:21;22;19;